Welcome to the New NWS' Forecast!
Most changes are behind the scenes, but click here for differences you might notice.
Latest weather observations around

WHITE CLOUD (CISC1)

Using English Units (Switch to International System of Units)
Date/ Time (PDT) Wind (mph) Vis. (mi) Weather Sky Cond. Temp (°F) Rel. Humidity Wind Chill (°F) Heat Index (°F) Pressure Precip. (in)
Air Dwpt 6 hour Altimeter (inHg) Sea level (inHg) 1 hr 3 hr 6 hr
Max Min
Aug 14 00:33 Calm   Clear   71 39     31%   69          
Aug 13 23:33 NNE 2   Clear   71 40     32%   69          
Aug 13 22:33 ENE 1   Clear   71 40     33%   69          
Aug 13 20:33 Calm   Clear   72 40     31%   70          
Aug 13 19:33 ESE 1   Clear   75 39     27%   73          
Aug 13 18:33 SSE 2   Clear   79 37     22%   78          
Aug 13 17:33 SE 2   Clear   83 35     18%   80          
Aug 13 14:33 SE 6   Clear   87 37     17%   84          
Aug 13 13:33 SE 4   Clear   87 37     17%   84          
Aug 13 12:33 SSE 4   Clear   87 41     20%   84          
Aug 13 11:33 SE 4   Clear   86 40     20%   83          
Aug 13 10:33 SSE 3   Clear   85 41     21%   82          
Aug 13 09:33 SE 4   Clear   83 36     19%   81          
Aug 13 08:33 ESE 5   Clear   79 33     19%   77          
Aug 13 07:33 SE 4   Clear   73 31     21%   71          
Aug 13 04:33 Calm   Clear   72 33     24%   70          
Aug 12 23:33 Calm   Clear   71 35     27%   69          
Aug 12 21:33 S 1   Clear   71 36     28%   69          
Aug 12 20:33 SE 1   Clear   72 37     28%   70          
Aug 12 19:33 ESE 2   Clear   75 34     22%   73          
Aug 12 17:33 SE 3   Clear   83 34     17%   80          
Aug 12 16:33 SE 4   Clear   86 33     15%   83          
Aug 12 12:33 ESE 2   Clear   89 35     15%   85          
Aug 12 11:33 SSE 3   Clear   87 32     14%   83          
Aug 12 09:33 SE 6   Clear   82 31     16%   80          
Aug 12 08:33 SE 5   Clear   79 32     18%   77          
Aug 12 06:33 SE 3   Clear   71 34     26%   69          
Aug 12 05:33 SSE 2   Clear   72 38     29%   70          
Aug 12 04:33 SSE 1   Clear   73 38     28%   71          
Aug 12 03:33 SSE 1   Clear   72 39     30%   70          
Aug 12 00:33 Calm   Clear   72 41     33%   70          
Aug 11 23:33 NE 2   Clear   73 41     32%   72          
Aug 11 21:33 SE 2   Clear   73 40     30%   71          
Aug 11 20:33 SE 1   Clear   74 42     32%   73          
Aug 11 18:33 SE 1   Clear   81 42     25%   80          
Aug 11 17:33 S 1   Clear   86 41     21%   83          
Aug 11 15:33 SSE 2   Clear   91 39     16%   87          
Aug 11 14:33 SSE 2   Clear   90 41     18%   86          
Aug 11 13:33 SE 3   Clear   89 38     17%   85          
Aug 11 10:33 SSE 2   Clear   87 45     23%   84          
Aug 11 08:33 E 1   Clear   81 44     27%   80          
Aug 11 04:33 SSE 1   Clear   72 39     30%   70          
Aug 11 03:33 Calm   Clear   71 40     32%   69          
Aug 11 02:33 Calm   Clear   72 38     29%   70          
Aug 11 01:33 Calm   Clear   74 39     28%   72          
Aug 10 23:33 Calm   Clear   74 41     30%   73          
Aug 10 22:33 Calm   Clear   76 40     27%   75          
May 15 01:33 SSE 1   Clear   49 47     93%              
May 11 21:33 N 4   Clear   51 26     37%              
May 11 19:33 NNE 3   Clear   54 26     33%              
Jun 11 09:33 SSE 3   Clear   44 39     83% 43            
Jun 11 07:33 W 1   Clear   42 40     94%              
Jun 11 04:33 SE 3   Clear   42 41     97% 41            
Jun 10 22:33 SE 6   Clear   47 42     84% 44            
Jun 06 08:33 ESE 5   Clear   71 32     24%   69          
Jun 05 14:33 SSE 4   Clear   76 29     18%   74